createdAt,value
2022-10-04T00:00:08.268Z,9.46
2022-10-04T00:10:22.609Z,9.40
2022-10-04T00:21:13.913Z,9.34
2022-10-04T00:31:29.478Z,9.10
2022-10-04T00:41:49.229Z,8.98
2022-10-04T00:52:05.894Z,8.61
2022-10-04T01:02:24.007Z,8.75
2022-10-04T01:12:47.213Z,8.30
2022-10-04T01:22:56.033Z,8.46
2022-10-04T01:43:38.662Z,8.65
2022-10-04T01:53:56.185Z,8.84
2022-10-04T02:04:24.395Z,9.02
2022-10-04T02:14:36.125Z,8.82
2022-10-04T02:24:48.555Z,8.73
2022-10-04T02:34:57.723Z,8.33
2022-10-04T02:45:21.667Z,8.62
2022-10-04T02:55:30.907Z,8.52
2022-10-04T03:05:43.561Z,8.95
2022-10-04T03:15:56.090Z,8.85
2022-10-04T03:26:33.689Z,9.01
2022-10-04T03:47:40.541Z,9.04
2022-10-04T03:57:51.409Z,9.66
2022-10-04T04:08:05.541Z,10.78
2022-10-04T04:29:20.630Z,12.65
2022-10-04T04:39:42.366Z,12.02
2022-10-04T04:49:47.096Z,11.14
2022-10-04T04:59:58.035Z,10.89
2022-10-04T05:10:21.960Z,11.37
2022-10-04T05:20:36.434Z,12.09
2022-10-04T05:31:05.167Z,12.28
2022-10-04T05:41:33.384Z,12.93
2022-10-04T05:51:54.478Z,13.48
2022-10-04T06:02:29.823Z,13.87
2022-10-04T06:12:54.466Z,14.07
2022-10-04T06:23:04.276Z,13.52
2022-10-04T06:33:38.105Z,13.88
2022-10-04T06:44:16.021Z,13.05
2022-10-04T07:05:27.200Z,12.79
2022-10-04T07:15:38.440Z,12.99
2022-10-04T07:25:52.032Z,13.04
2022-10-04T07:36:10.746Z,13.70
2022-10-04T07:47:02.339Z,14.21
2022-10-04T07:57:24.824Z,13.77
2022-10-04T08:07:56.393Z,13.95
2022-10-04T08:19:25.480Z,13.88
2022-10-04T08:29:59.068Z,13.71
2022-10-04T08:40:56.719Z,13.46
2022-10-04T08:52:14.216Z,13.32
2022-10-04T09:02:55.419Z,14.18
2022-10-04T09:13:16.309Z,14.57
2022-10-04T09:23:43.939Z,15.14
2022-10-04T09:34:01.487Z,14.50
2022-10-04T09:44:56.886Z,14.40
2022-10-04T09:55:42.068Z,14.38
2022-10-04T10:06:17.081Z,14.74
2022-10-04T10:16:41.461Z,14.70
2022-10-04T10:27:04.691Z,14.81
2022-10-04T10:37:21.794Z,15.47
2022-10-04T10:47:41.922Z,15.76
2022-10-04T10:58:18.132Z,15.82
2022-10-04T11:09:11.330Z,15.40
2022-10-04T11:20:13.656Z,15.21
2022-10-04T11:30:25.854Z,14.75
2022-10-04T11:40:49.712Z,14.26
2022-10-04T11:51:43.071Z,14.34
2022-10-04T12:02:29.752Z,14.55
2022-10-04T12:13:02.881Z,14.60
2022-10-04T12:23:37.618Z,14.45
2022-10-04T12:33:49.683Z,14.17
2022-10-04T12:44:08.216Z,14.72
2022-10-04T12:54:40.141Z,14.84
2022-10-04T13:04:53.976Z,15.06
2022-10-04T13:23:03.702Z,14.14
2022-10-04T13:33:21.839Z,14.17
2022-10-04T13:44:18.652Z,14.10
2022-10-04T13:54:55.911Z,13.82
2022-10-04T14:05:39.788Z,13.53
2022-10-04T14:16:12.652Z,12.82
2022-10-04T14:26:56.010Z,12.48
2022-10-04T14:37:25.711Z,12.39
2022-10-04T14:47:43.571Z,12.75
2022-10-04T14:58:08.814Z,12.63
2022-10-04T15:08:52.004Z,12.28
2022-10-04T15:19:09.235Z,12.19
2022-10-04T15:29:31.244Z,12.42
2022-10-04T15:51:33.967Z,12.57
2022-10-04T16:02:52.903Z,12.30
2022-10-04T16:13:43.467Z,11.36
2022-10-04T16:24:32.290Z,11.33
2022-10-04T16:46:40.245Z,11.84
2022-10-04T16:57:18.064Z,11.69
2022-10-04T17:07:40.970Z,11.56
2022-10-04T17:17:55.567Z,11.76
2022-10-04T17:28:23.928Z,11.63
2022-10-04T17:38:38.431Z,11.24
2022-10-04T17:49:11.892Z,10.62
2022-10-04T17:59:31.094Z,10.37
2022-10-04T18:10:17.575Z,10.60
2022-10-04T18:20:42.975Z,10.98
2022-10-04T18:31:05.106Z,10.68
2022-10-04T18:41:25.052Z,10.62
2022-10-04T18:51:46.485Z,10.80
2022-10-04T19:02:08.951Z,11.19
2022-10-04T19:12:26.888Z,10.84
2022-10-04T19:22:48.533Z,10.62
2022-10-04T19:33:12.920Z,10.54
2022-10-04T19:43:21.757Z,10.56
2022-10-04T19:53:41.351Z,10.65
2022-10-04T20:04:51.602Z,10.64
2022-10-04T20:27:06.674Z,10.32
2022-10-04T20:37:20.572Z,10.31
2022-10-04T20:47:47.766Z,9.81
2022-10-04T20:58:00.024Z,10.07
2022-10-04T21:08:29.852Z,10.02
2022-10-04T21:18:36.778Z,10.47
2022-10-04T21:28:49.067Z,10.24
2022-10-04T21:38:55.093Z,9.89
2022-10-04T21:49:02.701Z,9.92
2022-10-04T21:59:09.173Z,10.19
2022-10-04T22:09:13.407Z,10.13
2022-10-04T22:19:19.968Z,10.09
2022-10-04T22:29:35.109Z,10.17
2022-10-04T22:39:39.758Z,10.58
2022-10-04T22:49:50.160Z,10.07
2022-10-04T22:59:53.455Z,10.04
2022-10-04T23:10:00.114Z,10.01
2022-10-04T23:20:13.018Z,10.29
2022-10-04T23:30:20.130Z,10.09
2022-10-04T23:40:30.976Z,10.13
2022-10-04T23:50:39.377Z,10.02
